Time;durP1;ratioP1;P1;durP2;ratioP2;P2;SDS_P1;SDS_P2;PMS_P1;PMS_P2;Temp;Humidity;BMP_temperature;BMP_pressure;BME280_temperature;BME280_humidity;BME280_pressure;Samples;Min_cycle;Max_cycle;Signal;HPM_P1;HPM_P2
2023/05/25 00:01:25;;;;;;;8.63;3.85;;;10.50;99.90;;;;;;5001886;28;20060;-83
2023/05/25 00:03:54;;;;;;;11.48;4.15;;;10.50;99.90;;;;;;4968806;28;20081;-85
2023/05/25 00:06:20;;;;;;;11.68;4.35;;;11.50;99.90;;;;;;4982426;28;20494;-83
2023/05/25 00:08:47;;;;;;;9.32;4.00;;;10.40;99.90;;;;;;4999070;28;20074;-83
2023/05/25 00:11:14;;;;;;;9.55;3.72;;;10.40;99.90;;;;;;5000119;28;20061;-83
2023/05/25 00:13:40;;;;;;;13.23;5.18;;;11.60;99.90;;;;;;5001554;28;20532;-85
2023/05/25 00:16:06;;;;;;;10.90;4.03;;;12.10;99.90;;;;;;5001149;28;20054;-83
2023/05/25 00:18:32;;;;;;;7.03;3.63;;;10.40;99.90;;;;;;4994416;28;20034;-83
2023/05/25 00:21:04;;;;;;;10.95;3.63;;;11.20;99.90;;;;;;4995305;28;20037;-85
2023/05/25 00:23:30;;;;;;;11.52;3.95;;;10.30;99.90;;;;;;4987113;28;20049;-83
2023/05/25 00:25:56;;;;;;;7.50;4.03;;;11.20;99.90;;;;;;5009229;28;20053;-83
2023/05/25 00:28:21;;;;;;;7.90;3.25;;;10.30;99.90;;;;;;4999095;28;20092;-86
2023/05/25 00:30:47;;;;;;;8.45;3.58;;;12.20;99.90;;;;;;4998626;28;20053;-84
2023/05/25 00:33:14;;;;;;;8.35;3.65;;;11.10;99.90;;;;;;5006485;28;20046;-84
2023/05/25 00:35:41;;;;;;;9.60;4.22;;;11.70;99.90;;;;;;4997869;28;20097;-84
2023/05/25 00:38:12;;;;;;;9.48;3.45;;;10.20;99.90;;;;;;4998604;28;20038;-84
2023/05/25 00:40:39;;;;;;;12.88;4.22;;;11.50;99.90;;;;;;5001217;28;20049;-84
2023/05/25 00:43:07;;;;;;;8.02;3.85;;;11.30;99.90;;;;;;5000472;28;20478;-85
2023/05/25 00:45:33;;;;;;;11.57;4.38;;;11.40;99.90;;;;;;4980190;28;20128;-84
2023/05/25 00:48:00;;;;;;;6.63;4.13;;;10.10;99.90;;;;;;5005532;28;20129;-83
2023/05/25 00:50:43;;;;;;;10.05;4.05;;;10.40;99.90;;;;;;4979590;28;20038;-84
2023/05/25 00:53:10;;;;;;;9.48;4.13;;;10.10;99.90;;;;;;4979733;28;20047;-83
2023/05/25 00:55:43;;;;;;;7.85;3.58;;;10.00;99.90;;;;;;4983676;28;20073;-84
2023/05/25 00:58:09;;;;;;;8.07;3.33;;;11.20;99.90;;;;;;4992918;28;20046;-84
2023/05/25 01:00:40;;;;;;;9.95;3.55;;;11.60;99.90;;;;;;5000975;28;20121;-86
2023/05/25 01:03:16;;;;;;;8.63;3.20;;;10.00;99.90;;;;;;4999611;28;20240;-86
2023/05/25 01:05:46;;;;;;;11.35;3.25;;;10.00;99.90;;;;;;4997863;28;20093;-84
2023/05/25 01:08:15;;;;;;;10.35;3.03;;;10.20;99.90;;;;;;4998504;28;20045;-85
2023/05/25 01:10:42;;;;;;;8.55;2.83;;;11.80;99.90;;;;;;4982419;28;20072;-84
2023/05/25 01:13:08;;;;;;;11.35;3.80;;;10.00;99.90;;;;;;5000646;28;20077;-84
2023/05/25 01:15:36;;;;;;;9.00;3.08;;;10.90;99.90;;;;;;4997759;28;20093;-85
2023/05/25 01:18:02;;;;;;;11.48;3.35;;;11.80;99.90;;;;;;4997017;28;20030;-85
2023/05/25 01:20:31;;;;;;;5.85;3.17;;;9.90;99.90;;;;;;5000630;28;20048;-86
2023/05/25 01:23:01;;;;;;;9.43;3.25;;;10.50;99.90;;;;;;5000981;28;20057;-85
2023/05/25 01:25:38;;;;;;;8.43;2.97;;;11.90;99.90;;;;;;4997299;28;20042;-85
2023/05/25 01:28:24;;;;;;;8.30;3.22;;;10.80;99.90;;;;;;4997460;28;20057;-86
2023/05/25 01:30:50;;;;;;;8.43;2.97;;;10.20;99.90;;;;;;4991721;28;20349;-85
2023/05/25 01:33:20;;;;;;;5.18;2.58;;;11.20;99.90;;;;;;4997377;28;20133;-83
2023/05/25 01:35:47;;;;;;;8.95;2.90;;;11.00;99.90;;;;;;5001072;28;20397;-85
2023/05/25 01:38:13;;;;;;;9.10;3.33;;;9.80;99.90;;;;;;4991888;28;20050;-85
2023/05/25 01:40:39;;;;;;;11.43;3.10;;;11.30;99.90;;;;;;5003337;28;20034;-86
2023/05/25 01:43:04;;;;;;;5.82;2.88;;;10.00;99.90;;;;;;5005180;28;20037;-86
2023/05/25 01:45:31;;;;;;;8.52;3.40;;;10.30;99.90;;;;;;5000813;28;20038;-84
2023/05/25 01:48:39;;;;;;;7.82;3.10;;;11.70;99.90;;;;;;4983425;28;20557;-84
2023/05/25 01:51:20;;;;;;;8.35;3.13;;;9.60;99.90;;;;;;4999290;28;20174;-85
2023/05/25 01:53:53;;;;;;;14.00;3.88;;;9.60;99.90;;;;;;4995057;28;20133;-85
2023/05/25 01:56:20;;;;;;;9.95;3.38;;;11.70;99.90;;;;;;5004108;28;20056;-83
2023/05/25 01:58:49;;;;;;;8.43;3.08;;;9.50;99.90;;;;;;5003362;28;20038;-87
2023/05/25 02:01:17;;;;;;;10.07;4.03;;;10.50;99.90;;;;;;4983928;28;20410;-83
2023/05/25 02:03:45;;;;;;;7.85;3.05;;;9.30;99.90;;;;;;4987210;28;20045;-85
2023/05/25 02:06:11;;;;;;;9.85;3.42;;;9.50;99.90;;;;;;4995765;28;20088;-84
2023/05/25 02:08:36;;;;;;;9.82;4.35;;;11.50;99.90;;;;;;5004430;28;20073;-84
2023/05/25 02:11:02;;;;;;;8.40;3.55;;;9.30;99.90;;;;;;5004297;28;20053;-86
2023/05/25 02:13:28;;;;;;;7.15;3.63;;;9.70;99.90;;;;;;5001634;28;20521;-84
2023/05/25 02:15:53;;;;;;;7.90;4.05;;;9.10;99.90;;;;;;4987606;28;20046;-86
2023/05/25 02:18:19;;;;;;;7.45;3.30;;;9.30;99.90;;;;;;5010089;28;20046;-85
2023/05/25 02:20:46;;;;;;;9.45;3.53;;;9.30;99.90;;;;;;5005644;28;20041;-85
2023/05/25 02:23:11;;;;;;;9.23;4.03;;;9.20;99.90;;;;;;5004378;28;20068;-86
2023/05/25 02:25:37;;;;;;;7.10;4.38;;;9.10;99.90;;;;;;5000733;28;20559;-87
2023/05/25 02:28:03;;;;;;;10.98;3.92;;;9.20;99.90;;;;;;5000018;28;20042;-84
2023/05/25 02:30:29;;;;;;;14.00;4.65;;;9.20;99.90;;;;;;5003607;28;20046;-84
2023/05/25 02:32:55;;;;;;;9.70;4.20;;;9.20;99.90;;;;;;5003874;28;20109;-84
2023/05/25 02:35:21;;;;;;;11.68;4.28;;;9.00;99.90;;;;;;5001905;28;20700;-85
2023/05/25 02:37:47;;;;;;;6.82;4.13;;;9.20;99.90;;;;;;4999169;28;20479;-84
2023/05/25 02:40:13;;;;;;;10.13;4.63;;;9.20;99.90;;;;;;5000398;28;20117;-85
2023/05/25 02:42:39;;;;;;;13.88;4.78;;;9.30;99.90;;;;;;5002965;28;20571;-84
2023/05/25 02:45:09;;;;;;;10.13;4.78;;;9.30;99.90;;;;;;5003743;28;20042;-84
2023/05/25 02:47:36;;;;;;;10.57;4.68;;;9.20;99.90;;;;;;5003403;28;20133;-84
2023/05/25 02:50:02;;;;;;;8.20;3.83;;;9.20;99.90;;;;;;5002087;28;20121;-86
2023/05/25 02:52:30;;;;;;;10.63;4.97;;;9.20;99.90;;;;;;5001078;28;20168;-85
2023/05/25 02:54:56;;;;;;;10.48;4.20;;;9.20;99.90;;;;;;4978786;28;20061;-86
2023/05/25 02:57:22;;;;;;;12.88;4.35;;;9.20;99.90;;;;;;4982565;28;20045;-86
2023/05/25 02:59:48;;;;;;;9.40;4.65;;;9.20;99.90;;;;;;4999812;28;20073;-83
2023/05/25 03:02:13;;;;;;;9.95;3.88;;;9.20;99.90;;;;;;4981424;28;20039;-85
2023/05/25 03:04:40;;;;;;;8.73;4.18;;;9.20;99.90;;;;;;5001702;28;20057;-85
2023/05/25 03:07:06;;;;;;;10.45;4.18;;;9.40;99.90;;;;;;5003509;28;20425;-85
2023/05/25 03:09:32;;;;;;;13.07;4.63;;;9.10;99.90;;;;;;4999433;28;20050;-86
2023/05/25 03:11:57;;;;;;;10.10;4.32;;;9.10;99.90;;;;;;4999845;28;20038;-86
2023/05/25 03:14:23;;;;;;;13.73;6.78;;;9.00;99.90;;;;;;5001165;28;20105;-85
2023/05/25 03:16:49;;;;;;;12.25;6.03;;;9.10;99.90;;;;;;5002637;28;20064;-86
2023/05/25 03:19:14;;;;;;;12.68;6.07;;;9.10;99.90;;;;;;5002633;28;20413;-85
2023/05/25 03:21:40;;;;;;;12.50;5.30;;;9.10;99.90;;;;;;5002041;28;20045;-86
2023/05/25 03:24:06;;;;;;;8.10;4.15;;;8.60;99.90;;;;;;5003074;28;20374;-86
2023/05/25 03:26:32;;;;;;;8.73;4.40;;;9.00;99.90;;;;;;5000652;28;20316;-86
2023/05/25 03:28:58;;;;;;;7.32;4.25;;;11.50;99.90;;;;;;4999274;28;20548;-84
2023/05/25 03:31:23;;;;;;;10.13;4.28;;;11.20;99.90;;;;;;4996791;28;20046;-86
2023/05/25 03:33:49;;;;;;;11.55;4.57;;;8.90;99.90;;;;;;5001802;28;20042;-86
2023/05/25 03:36:16;;;;;;;11.20;4.75;;;9.00;99.90;;;;;;5002719;28;20056;-85
2023/05/25 03:38:43;;;;;;;11.88;4.63;;;8.90;99.90;;;;;;4998382;28;20715;-85
2023/05/25 03:41:09;;;;;;;10.65;4.05;;;9.00;99.90;;;;;;4979826;28;20093;-84
2023/05/25 03:43:34;;;;;;;9.50;4.55;;;9.00;99.90;;;;;;5002029;28;20064;-86
2023/05/25 03:46:00;;;;;;;8.23;4.80;;;11.10;99.90;;;;;;4984272;28;20091;-86
2023/05/25 03:48:26;;;;;;;11.23;4.55;;;9.00;99.90;;;;;;5002624;28;20037;-86
2023/05/25 03:50:53;;;;;;;8.73;4.03;;;9.00;99.90;;;;;;5004324;28;20177;-86
2023/05/25 03:53:18;;;;;;;9.80;4.68;;;9.10;99.90;;;;;;5001262;28;20096;-84
2023/05/25 03:55:44;;;;;;;10.52;4.50;;;9.10;99.90;;;;;;5003806;28;20038;-86
2023/05/25 03:58:10;;;;;;;11.35;4.22;;;9.10;99.90;;;;;;5002179;28;20521;-85
2023/05/25 04:00:36;;;;;;;10.77;5.07;;;10.10;99.90;;;;;;4998354;28;20112;-86
2023/05/25 04:03:02;;;;;;;10.65;5.05;;;9.40;99.90;;;;;;4998323;28;20096;-84
2023/05/25 04:05:28;;;;;;;12.57;5.30;;;9.00;99.90;;;;;;5000369;28;20185;-86
2023/05/25 04:07:54;;;;;;;12.75;5.50;;;10.20;99.90;;;;;;4980693;28;20042;-85
2023/05/25 04:10:20;;;;;;;11.10;4.60;;;9.00;99.90;;;;;;5007146;28;20042;-85
2023/05/25 04:12:46;;;;;;;10.95;5.15;;;9.00;99.90;;;;;;5009094;28;20042;-85
2023/05/25 04:15:13;;;;;;;9.73;4.60;;;11.10;99.90;;;;;;5002961;28;20053;-86
2023/05/25 04:17:39;;;;;;;10.25;5.00;;;9.10;99.90;;;;;;4998770;28;20502;-86
2023/05/25 04:20:08;;;;;;;9.45;5.07;;;10.50;99.90;;;;;;4997768;28;20061;-86
2023/05/25 04:22:37;;;;;;;12.57;5.53;;;9.20;99.90;;;;;;4999630;28;20449;-86
2023/05/25 04:25:05;;;;;;;18.48;5.43;;;9.10;99.90;;;;;;5000557;28;20085;-85
2023/05/25 04:27:31;;;;;;;10.68;5.50;;;9.20;99.90;;;;;;4981795;28;20045;-86
2023/05/25 04:29:57;;;;;;;12.35;5.65;;;9.40;99.90;;;;;;4998113;28;20132;-86
2023/05/25 04:32:23;;;;;;;12.90;6.30;;;11.00;99.90;;;;;;4998455;28;20446;-86
2023/05/25 04:34:49;;;;;;;19.52;7.28;;;9.80;99.90;;;;;;4979592;28;20050;-84
2023/05/25 04:37:16;;;;;;;17.92;6.10;;;10.60;99.90;;;;;;4996470;28;20048;-85
2023/05/25 04:39:41;;;;;;;14.52;6.30;;;9.50;99.90;;;;;;4999423;28;20035;-84
2023/05/25 04:42:07;;;;;;;16.63;7.60;;;9.50;99.90;;;;;;4997595;28;20108;-86
2023/05/25 04:44:33;;;;;;;15.95;7.32;;;11.90;99.90;;;;;;5000305;28;20067;-87
2023/05/25 04:47:00;;;;;;;16.75;7.20;;;11.60;99.90;;;;;;5003611;28;20042;-84
2023/05/25 04:49:26;;;;;;;15.82;6.70;;;9.60;99.90;;;;;;5001496;28;20485;-86
2023/05/25 04:51:51;;;;;;;17.75;8.18;;;9.70;99.90;;;;;;5004835;28;20091;-84
2023/05/25 04:54:17;;;;;;;12.40;7.10;;;9.70;99.90;;;;;;5002716;28;20497;-87
2023/05/25 04:56:43;;;;;;;15.65;7.15;;;10.20;99.90;;;;;;5000964;28;20038;-82
2023/05/25 04:59:10;;;;;;;16.95;6.72;;;9.80;99.90;;;;;;5001745;28;20085;-84
2023/05/25 05:01:43;;;;;;;18.27;7.65;;;12.00;99.90;;;;;;4999199;28;20042;-85
2023/05/25 05:04:09;;;;;;;21.13;7.57;;;10.80;99.90;;;;;;4998669;28;20462;-82
2023/05/25 05:06:35;;;;;;;16.92;7.53;;;10.00;99.90;;;;;;4999827;28;20085;-84
2023/05/25 05:09:02;;;;;;;16.15;6.90;;;11.90;99.90;;;;;;5001177;28;20477;-84
2023/05/25 05:11:28;;;;;;;19.73;6.68;;;10.10;99.90;;;;;;5000730;28;20068;-83
2023/05/25 05:13:54;;;;;;;23.23;8.13;;;10.10;99.90;;;;;;4997498;28;20105;-84
2023/05/25 05:16:20;;;;;;;15.07;7.43;;;10.00;99.90;;;;;;4997493;28;20597;-85
2023/05/25 05:18:46;;;;;;;21.05;7.25;;;10.40;99.90;;;;;;5001264;28;20121;-84
2023/05/25 05:21:12;;;;;;;22.85;8.07;;;12.50;99.90;;;;;;5001827;28;20042;-85
2023/05/25 05:23:37;;;;;;;18.65;7.25;;;10.30;99.90;;;;;;4981729;28;20469;-85
2023/05/25 05:26:06;;;;;;;20.77;7.50;;;10.40;99.90;;;;;;4998400;28;20035;-85
2023/05/25 05:28:31;;;;;;;18.52;7.20;;;10.40;99.90;;;;;;4999198;28;20065;-88
2023/05/25 05:30:57;;;;;;;16.02;7.53;;;10.50;99.90;;;;;;4983300;28;20466;-83
2023/05/25 05:33:22;;;;;;;19.63;8.10;;;11.30;99.90;;;;;;5001415;28;20045;-85
2023/05/25 05:35:49;;;;;;;18.98;7.65;;;11.00;99.90;;;;;;4998716;28;20069;-84
2023/05/25 05:38:15;;;;;;;19.63;6.78;;;11.70;99.90;;;;;;4997673;28;20534;-84
2023/05/25 05:40:41;;;;;;;18.27;7.72;;;10.70;99.90;;;;;;4982788;28;20082;-84
2023/05/25 05:43:08;;;;;;;14.73;7.25;;;10.70;99.90;;;;;;5001700;28;20117;-86
2023/05/25 05:45:34;;;;;;;14.15;6.50;;;12.50;99.90;;;;;;5001308;28;20034;-85
2023/05/25 05:48:00;;;;;;;20.95;7.80;;;10.90;99.90;;;;;;5000999;28;20041;-85
2023/05/25 05:50:25;;;;;;;16.98;7.32;;;10.90;99.90;;;;;;5000756;28;20038;-84
2023/05/25 05:52:52;;;;;;;21.40;7.75;;;11.00;99.90;;;;;;4973108;28;20482;-83
2023/05/25 05:55:19;;;;;;;14.80;7.57;;;11.00;99.90;;;;;;4998348;28;20278;-84
2023/05/25 05:57:45;;;;;;;18.50;7.13;;;13.40;99.90;;;;;;4981972;28;20406;-85
2023/05/25 06:00:13;;;;;;;20.92;7.68;;;11.20;99.90;;;;;;5002659;28;20113;-86
2023/05/25 06:02:39;;;;;;;15.20;6.85;;;11.20;99.90;;;;;;5004648;28;20544;-86
2023/05/25 06:05:05;;;;;;;19.05;6.30;;;11.30;99.90;;;;;;5003210;28;20047;-85
2023/05/25 06:07:33;;;;;;;17.85;7.00;;;11.30;99.90;;;;;;5001015;28;20102;-85
2023/05/25 06:09:59;;;;;;;18.27;7.65;;;11.40;99.90;;;;;;5000172;28;20133;-85
2023/05/25 06:12:25;;;;;;;15.10;7.60;;;11.40;99.90;;;;;;4999120;28;20124;-86
2023/05/25 06:14:51;;;;;;;20.00;10.95;;;13.40;99.90;;;;;;4997843;28;20039;-86
2023/05/25 06:17:18;;;;;;;21.50;7.28;;;11.50;99.90;;;;;;4997353;28;20054;-86
2023/05/25 06:19:44;;;;;;;17.77;6.35;;;11.60;99.90;;;;;;4998574;28;20050;-86
2023/05/25 06:22:10;;;;;;;20.40;7.90;;;12.20;99.90;;;;;;4999658;28;20045;-86
2023/05/25 06:24:35;;;;;;;17.42;6.82;;;11.70;99.90;;;;;;4983222;28;20054;-86
2023/05/25 06:27:02;;;;;;;18.88;6.72;;;13.20;99.90;;;;;;5000252;28;20046;-86
2023/05/25 06:29:28;;;;;;;13.57;5.57;;;11.80;99.90;;;;;;4999546;28;20046;-85
2023/05/25 06:31:54;;;;;;;20.40;6.07;;;12.80;99.90;;;;;;5003734;28;20481;-86
2023/05/25 06:34:19;;;;;;;15.02;6.15;;;11.80;99.90;;;;;;5004671;28;20433;-84
2023/05/25 06:36:46;;;;;;;14.70;4.72;;;12.00;99.90;;;;;;5004323;28;20045;-86
2023/05/25 06:39:12;;;;;;;12.77;4.75;;;13.80;99.90;;;;;;5001608;28;20109;-84
2023/05/25 06:41:39;;;;;;;19.98;9.98;;;12.10;99.90;;;;;;5000993;28;20130;-86
2023/05/25 06:44:05;;;;;;;26.08;12.13;;;14.30;99.90;;;;;;5004380;28;20069;-86
2023/05/25 06:46:31;;;;;;;16.00;4.72;;;12.20;99.90;;;;;;4986400;28;20099;-87
2023/05/25 06:49:01;;;;;;;16.73;4.25;;;13.40;99.90;;;;;;4973616;28;20052;-86
2023/05/25 06:51:27;;;;;;;13.27;3.63;;;13.10;99.90;;;;;;5001176;28;20104;-85
2023/05/25 06:53:56;;;;;;;12.13;3.63;;;13.50;99.90;;;;;;5009233;28;20478;-86
2023/05/25 06:56:22;;;;;;;15.77;3.90;;;12.30;99.90;;;;;;5000044;28;20585;-87
2023/05/25 06:58:48;;;;;;;13.70;4.13;;;11.40;99.90;;;;;;4984269;28;20463;-85
2023/05/25 07:01:14;;;;;;;16.88;3.78;;;12.40;99.90;;;;;;5001737;28;20505;-87
2023/05/25 07:03:40;;;;;;;13.38;4.53;;;14.20;99.90;;;;;;5003747;28;20398;-87
2023/05/25 07:06:06;;;;;;;16.00;4.78;;;14.30;99.90;;;;;;5003225;28;20045;-86
2023/05/25 07:08:31;;;;;;;12.75;3.83;;;12.40;99.90;;;;;;4994607;28;20072;-85
2023/05/25 07:10:57;;;;;;;14.43;3.45;;;13.70;99.90;;;;;;5010010;28;20057;-87
2023/05/25 07:13:23;;;;;;;14.55;3.90;;;12.50;99.90;;;;;;5006429;28;20046;-86
2023/05/25 07:15:49;;;;;;;16.75;3.97;;;12.50;99.90;;;;;;5005382;28;20081;-87
2023/05/25 07:18:15;;;;;;;17.25;3.63;;;12.60;99.90;;;;;;4987615;28;20084;-87
2023/05/25 07:20:40;;;;;;;16.30;4.85;;;14.60;99.90;;;;;;5002920;28;20041;-88
2023/05/25 07:23:10;;;;;;;17.58;3.92;;;12.80;99.90;;;;;;4982488;28;20120;-87
2023/05/25 07:25:40;;;;;;;17.88;4.18;;;12.60;99.90;;;;;;4997966;28;20045;-88
2023/05/25 07:28:07;;;;;;;15.77;3.83;;;12.70;99.90;;;;;;5007199;28;20037;-87
2023/05/25 07:30:41;;;;;;;19.20;4.70;;;12.70;99.90;;;;;;5013513;28;20048;-86
2023/05/25 07:33:20;;;;;;;21.15;4.28;;;12.70;99.90;;;;;;4979486;28;20121;-88
2023/05/25 07:35:46;;;;;;;21.05;4.80;;;12.60;99.90;;;;;;4997647;28;20042;-86
2023/05/25 07:38:13;;;;;;;20.05;5.05;;;12.70;99.90;;;;;;5006624;28;20582;-87
2023/05/25 07:40:38;;;;;;;25.02;5.07;;;14.60;99.90;;;;;;5010081;28;20038;-85
2023/05/25 07:43:04;;;;;;;22.70;5.35;;;12.60;99.90;;;;;;5008276;28;20037;-85
2023/05/25 07:45:30;;;;;;;17.15;5.40;;;12.60;99.90;;;;;;5011262;28;20518;-87
2023/05/25 07:47:56;;;;;;;17.98;4.60;;;12.60;99.90;;;;;;5008924;28;20042;-84
2023/05/25 07:50:22;;;;;;;32.88;5.22;;;13.20;99.90;;;;;;5002120;28;20065;-85
2023/05/25 07:52:48;;;;;;;26.05;5.50;;;12.70;99.90;;;;;;5002551;28;20053;-86
2023/05/25 07:55:16;;;;;;;24.40;5.70;;;12.80;99.90;;;;;;5018082;28;20038;-87
2023/05/25 07:57:41;;;;;;;25.70;5.38;;;12.80;99.90;;;;;;5027641;28;20415;-88
2023/05/25 08:00:09;;;;;;;19.27;5.15;;;14.90;99.90;;;;;;4997412;28;20048;-87
2023/05/25 08:02:34;;;;;;;29.88;10.40;;;12.90;99.90;;;;;;5003022;28;20053;-88
2023/05/25 08:05:04;;;;;;;34.45;7.03;;;12.80;99.90;;;;;;4999506;28;20050;-86
2023/05/25 08:07:31;;;;;;;21.08;5.05;;;13.00;99.90;;;;;;5002476;28;20057;-85
2023/05/25 08:09:57;;;;;;;25.08;5.15;;;14.00;99.90;;;;;;5002223;28;20126;-87
2023/05/25 08:12:23;;;;;;;25.45;6.72;;;13.90;99.90;;;;;;5002040;28;20405;-88
2023/05/25 08:14:49;;;;;;;29.05;6.25;;;13.80;99.90;;;;;;5003925;28;20042;-88
2023/05/25 08:17:15;;;;;;;27.52;6.18;;;13.30;99.90;;;;;;4998577;28;20057;-87
2023/05/25 08:19:41;;;;;;;26.40;6.05;;;14.70;99.90;;;;;;4980992;28;20042;-87
2023/05/25 08:22:06;;;;;;;24.90;5.03;;;14.40;99.90;;;;;;5002851;28;20030;-87
2023/05/25 08:24:32;;;;;;;28.13;6.07;;;14.20;99.90;;;;;;4984866;28;20034;-86
2023/05/25 08:26:57;;;;;;;20.17;4.60;;;14.40;99.90;;;;;;4998693;28;20046;-89
2023/05/25 08:29:23;;;;;;;26.55;5.28;;;13.30;99.90;;;;;;4997844;28;20390;-85
2023/05/25 08:31:50;;;;;;;27.20;5.45;;;13.30;99.90;;;;;;4999474;28;20057;-86
2023/05/25 08:34:16;;;;;;;20.77;4.72;;;13.40;99.90;;;;;;5000635;28;20481;-87
2023/05/25 08:36:41;;;;;;;26.92;6.30;;;13.40;99.90;;;;;;4999904;28;20056;-87
2023/05/25 08:39:08;;;;;;;27.13;5.28;;;13.40;99.90;;;;;;4997750;28;20100;-87
2023/05/25 08:41:35;;;;;;;24.60;4.88;;;13.40;99.90;;;;;;4997473;28;20050;-87
2023/05/25 08:44:05;;;;;;;23.90;5.45;;;14.40;99.90;;;;;;5000524;28;20529;-86
2023/05/25 08:46:31;;;;;;;26.63;5.10;;;13.50;99.90;;;;;;5001384;28;20401;-87
2023/05/25 08:49:17;;;;;;;25.10;6.10;;;13.50;99.90;;;;;;4992115;28;20042;-87
2023/05/25 08:51:53;;;;;;;25.85;6.07;;;14.40;99.90;;;;;;5001329;28;20046;-87
2023/05/25 08:54:25;;;;;;;24.70;5.85;;;13.50;99.90;;;;;;4990814;28;20564;-87
2023/05/25 08:57:12;;;;;;;22.38;5.25;;;14.60;99.90;;;;;;4999025;28;20042;-87
2023/05/25 09:00:09;;;;;;;25.17;5.63;;;13.60;99.90;;;;;;5000205;28;20456;-86
2023/05/25 09:02:52;;;;;;;25.77;4.80;;;13.60;99.90;;;;;;4989881;28;20057;-87
2023/05/25 09:05:18;;;;;;;21.50;4.15;;;13.70;99.90;;;;;;4990587;28;20525;-87
2023/05/25 09:07:44;;;;;;;26.10;4.80;;;13.60;99.90;;;;;;4996437;28;20034;-85
2023/05/25 09:10:10;;;;;;;23.42;4.82;;;15.40;99.90;;;;;;4989741;28;20048;-88
2023/05/25 09:12:37;;;;;;;27.80;5.05;;;13.70;99.90;;;;;;4998072;28;20054;-87
2023/05/25 09:15:04;;;;;;;30.52;9.95;;;13.80;99.90;;;;;;4999879;28;20409;-85
2023/05/25 09:17:30;;;;;;;26.58;11.48;;;13.90;99.90;;;;;;5002833;28;20045;-89
2023/05/25 09:19:56;;;;;;;24.73;6.13;;;15.60;99.90;;;;;;5001584;28;20050;-85
2023/05/25 09:22:21;;;;;;;23.63;5.28;;;14.00;99.90;;;;;;4997506;28;20105;-84
2023/05/25 09:24:48;;;;;;;22.83;5.60;;;14.00;99.90;;;;;;4999138;28;20042;-87
2023/05/25 09:27:18;;;;;;;31.38;4.47;;;15.20;99.90;;;;;;5001480;28;20038;-86
2023/05/25 09:29:46;;;;;;;20.95;4.90;;;15.40;99.90;;;;;;4983535;28;20094;-85
2023/05/25 09:32:12;;;;;;;21.50;5.00;;;14.70;99.90;;;;;;4999446;28;20481;-85
2023/05/25 09:34:37;;;;;;;21.08;5.15;;;14.30;99.90;;;;;;5001249;28;20038;-88
2023/05/25 09:37:12;;;;;;;20.63;4.97;;;15.80;99.90;;;;;;5002177;28;20543;-87
2023/05/25 09:39:42;;;;;;;24.05;4.68;;;14.30;99.90;;;;;;5001493;28;20043;-86
2023/05/25 09:42:11;;;;;;;17.08;4.63;;;14.20;99.90;;;;;;5010115;28;20402;-84
2023/05/25 09:44:37;;;;;;;21.10;5.07;;;14.30;99.90;;;;;;5001596;28;20284;-86
2023/05/25 09:47:03;;;;;;;19.25;4.93;;;14.40;99.90;;;;;;5010875;28;20707;-88
2023/05/25 09:49:29;;;;;;;18.67;4.30;;;14.30;99.90;;;;;;5000065;28;20155;-87
2023/05/25 09:51:55;;;;;;;17.38;4.68;;;15.60;99.90;;;;;;4983324;28;20047;-84
2023/05/25 09:54:21;;;;;;;18.67;4.07;;;14.50;99.90;;;;;;5003788;28;20038;-84
2023/05/25 09:56:47;;;;;;;16.83;4.63;;;15.30;99.90;;;;;;5011865;28;20528;-87
2023/05/25 09:59:13;;;;;;;21.67;5.07;;;14.70;99.90;;;;;;4982480;28;20129;-86
2023/05/25 10:01:39;;;;;;;18.92;4.97;;;15.80;99.90;;;;;;5000303;28;20498;-87
2023/05/25 10:04:05;;;;;;;24.40;5.57;;;15.40;99.90;;;;;;5003177;28;20482;-86
2023/05/25 10:06:32;;;;;;;19.35;4.93;;;15.20;99.90;;;;;;5008035;28;20041;-85
2023/05/25 10:08:58;;;;;;;26.67;5.22;;;14.90;99.90;;;;;;5006194;28;20045;-86
2023/05/25 10:11:26;;;;;;;25.70;5.03;;;15.00;99.90;;;;;;5005810;28;20037;-87
2023/05/25 10:13:53;;;;;;;21.38;5.75;;;15.00;99.90;;;;;;5008384;28;20042;-86
2023/05/25 10:16:24;;;;;;;25.73;5.10;;;15.00;99.90;;;;;;4994094;28;20050;-88
2023/05/25 10:18:50;;;;;;;26.77;5.85;;;14.90;99.90;;;;;;5001503;28;20088;-85
2023/05/25 10:21:17;;;;;;;25.42;5.65;;;16.70;99.90;;;;;;5004422;28;20057;-88
2023/05/25 10:23:53;;;;;;;23.23;5.60;;;14.90;99.90;;;;;;5004405;28;20045;-87
2023/05/25 10:26:22;;;;;;;28.27;6.63;;;14.90;99.90;;;;;;5000849;28;20166;-87
2023/05/25 10:28:55;;;;;;;23.45;6.28;;;15.80;99.90;;;;;;5002994;28;20081;-88
2023/05/25 10:31:22;;;;;;;28.77;6.38;;;16.10;99.90;;;;;;4974044;28;20051;-86
2023/05/25 10:33:48;;;;;;;19.88;4.45;;;15.50;99.90;;;;;;4997490;28;20501;-87
2023/05/25 10:36:14;;;;;;;24.50;5.13;;;14.80;99.90;;;;;;5004064;28;20037;-87
2023/05/25 10:38:42;;;;;;;21.73;5.28;;;14.90;99.90;;;;;;5003955;28;20042;-87
2023/05/25 10:41:10;;;;;;;24.88;6.05;;;15.10;99.90;;;;;;5005129;28;20095;-87
2023/05/25 10:43:37;;;;;;;31.80;5.93;;;15.00;99.90;;;;;;5004462;28;20033;-86
2023/05/25 10:46:05;;;;;;;29.25;6.65;;;16.90;99.90;;;;;;5004708;28;20045;-86
2023/05/25 10:48:44;;;;;;;19.17;4.75;;;15.20;99.90;;;;;;4999779;28;20050;-87
2023/05/25 10:51:10;;;;;;;24.85;5.75;;;15.20;99.90;;;;;;4984552;28;20481;-87
2023/05/25 10:53:36;;;;;;;19.33;5.32;;;15.40;99.90;;;;;;4980326;28;20045;-87
2023/05/25 10:56:04;;;;;;;19.63;5.07;;;16.20;99.90;;;;;;5000072;28;20089;-90
2023/05/25 10:58:30;;;;;;;25.73;5.93;;;15.70;99.90;;;;;;5003876;28;20085;-86
2023/05/25 11:01:01;;;;;;;17.63;4.82;;;15.80;99.90;;;;;;5002941;28;20037;-87
2023/05/25 11:03:45;;;;;;;22.73;5.45;;;15.80;99.90;;;;;;4992572;28;20054;-87
2023/05/25 11:06:14;;;;;;;26.95;6.10;;;15.90;99.90;;;;;;5002311;28;20130;-87
2023/05/25 11:09:05;;;;;;;20.30;4.53;;;16.70;99.90;;;;;;4997343;28;20057;-86
2023/05/25 11:11:44;;;;;;;20.42;4.63;;;15.90;99.90;;;;;;4987543;28;20097;-88
2023/05/25 11:14:25;;;;;;;24.38;5.50;;;16.00;99.90;;;;;;5001462;28;20082;-87
2023/05/25 11:17:12;;;;;;;20.23;5.47;;;16.10;99.90;;;;;;4987397;28;20054;-89
2023/05/25 11:19:46;;;;;;;20.08;4.47;;;16.20;99.90;;;;;;4982380;28;20581;-87
2023/05/25 11:22:14;;;;;;;13.63;3.77;;;16.30;99.90;;;;;;5002044;28;20042;-87
2023/05/25 11:24:43;;;;;;;21.73;4.95;;;16.50;99.90;;;;;;5006133;28;20368;-91
2023/05/25 11:27:10;;;;;;;19.77;5.22;;;16.60;99.90;;;;;;5002333;28;20401;-90
2023/05/25 11:29:36;;;;;;;18.23;4.30;;;18.40;99.90;;;;;;4978761;28;20034;-89
2023/05/25 11:32:02;;;;;;;18.77;4.97;;;16.60;99.90;;;;;;4998744;28;20034;-87
2023/05/25 11:34:30;;;;;;;19.42;5.22;;;16.70;99.90;;;;;;5012430;28;20421;-85
2023/05/25 11:37:01;;;;;;;25.92;5.63;;;16.80;99.90;;;;;;5009461;28;20050;-88
2023/05/25 11:39:28;;;;;;;21.65;4.63;;;16.80;99.90;;;;;;5000946;28;20090;-87
2023/05/25 11:42:03;;;;;;;23.25;5.47;;;17.70;99.90;;;;;;4999927;28;20046;-89
2023/05/25 11:44:32;;;;;;;29.40;6.38;;;18.00;99.90;;;;;;5002406;28;20059;-87
2023/05/25 11:47:01;;;;;;;22.13;5.88;;;17.00;99.90;;;;;;4985805;28;20081;-88
2023/05/25 11:49:27;;;;;;;20.30;5.53;;;17.10;99.90;;;;;;4976239;28;20069;-88
2023/05/25 11:51:55;;;;;;;20.25;5.78;;;17.20;99.90;;;;;;4969410;28;20041;-89
2023/05/25 11:54:22;;;;;;;25.02;5.18;;;17.20;99.90;;;;;;5001102;28;20053;-87
2023/05/25 11:56:47;;;;;;;23.80;5.03;;;18.30;99.90;;;;;;4999338;28;20054;-88
2023/05/25 11:59:13;;;;;;;25.65;5.10;;;17.30;99.90;;;;;;4999079;28;20379;-88
2023/05/25 12:01:40;;;;;;;20.73;5.35;;;17.50;99.90;;;;;;5000496;28;20058;-89
2023/05/25 12:04:10;;;;;;;19.10;4.63;;;17.60;99.90;;;;;;5000237;28;20047;-88
2023/05/25 12:06:36;;;;;;;18.73;4.43;;;17.60;99.90;;;;;;4986793;28;20041;-88
2023/05/25 12:09:05;;;;;;;24.40;5.50;;;17.50;99.90;;;;;;5003229;28;20045;-87
2023/05/25 12:11:33;;;;;;;22.15;5.13;;;17.50;99.90;;;;;;4999482;28;20093;-87
2023/05/25 12:14:00;;;;;;;21.23;5.00;;;17.30;99.90;;;;;;4999041;28;20039;-87
2023/05/25 12:16:27;;;;;;;16.20;5.03;;;17.20;99.90;;;;;;5001087;28;20061;-87
2023/05/25 12:18:53;;;;;;;22.35;5.18;;;18.40;99.90;;;;;;5001655;28;20048;-87
2023/05/25 12:21:22;;;;;;;24.60;5.72;;;18.70;99.90;;;;;;5000546;28;20125;-86
2023/05/25 12:23:49;;;;;;;27.92;5.53;;;17.20;99.90;;;;;;4998167;28;20034;-88
2023/05/25 12:26:16;;;;;;;31.80;11.20;;;18.50;99.90;;;;;;4998565;28;20050;-84
2023/05/25 12:29:00;;;;;;;24.23;6.43;;;18.60;99.90;;;;;;4984465;28;20050;-89
2023/05/25 12:31:30;;;;;;;22.08;6.13;;;17.30;99.90;;;;;;4999307;28;20072;-88
2023/05/25 12:34:06;;;;;;;20.02;5.95;;;17.20;99.90;;;;;;4997713;28;20177;-85
2023/05/25 12:36:39;;;;;;;23.55;5.25;;;18.20;99.90;;;;;;4999701;28;20094;-89
2023/05/25 12:39:06;;;;;;;21.95;5.07;;;17.30;99.90;;;;;;4997956;28;20193;-88
2023/05/25 12:41:44;;;;;;;19.83;5.38;;;17.80;99.90;;;;;;5000611;28;20074;-86
2023/05/25 12:44:16;;;;;;;22.17;4.93;;;17.40;99.90;;;;;;4998862;28;20038;-87